Time;durP1;ratioP1;P1;durP2;ratioP2;P2;SDS_P1;SDS_P2;PMS_P1;PMS_P2;Temp;Humidity;BMP_temperature;BMP_pressure;BME280_temperature;BME280_humidity;BME280_pressure;Samples;Min_cycle;Max_cycle;Signal;HPM_P1;HPM_P2
2022/09/04 00:02:22;;;;;;;0.00;0.00;;;14.00;99.90;;;;;;5075745;28;20041;-73
2022/09/04 00:05:07;;;;;;;0.00;0.00;;;13.80;99.90;;;;;;5075780;28;20033;-73
2022/09/04 00:07:46;;;;;;;0.00;0.00;;;13.70;99.90;;;;;;5074610;28;20060;-72
2022/09/04 00:10:28;;;;;;;0.00;0.00;;;13.60;99.90;;;;;;5074299;28;20080;-74
2022/09/04 00:13:08;;;;;;;0.43;0.10;;;13.60;99.90;;;;;;5074663;28;20073;-73
2022/09/04 00:15:42;;;;;;;0.73;0.30;;;13.60;99.90;;;;;;5075653;28;20053;-74
2022/09/04 00:18:27;;;;;;;0.10;0.10;;;13.60;99.90;;;;;;5075051;28;20044;-73
2022/09/04 00:21:01;;;;;;;0.00;0.00;;;13.40;99.90;;;;;;5075351;28;20177;-73
2022/09/04 00:23:50;;;;;;;2.08;0.75;;;13.80;99.90;;;;;;5074997;28;20041;-73
2022/09/04 00:26:53;;;;;;;0.47;0.35;;;13.30;99.90;;;;;;5075696;28;20032;-74
2022/09/04 00:29:24;;;;;;;3.72;0.47;;;13.20;99.90;;;;;;5074704;28;20510;-73
2022/09/04 00:32:00;;;;;;;0.00;0.00;;;13.10;99.90;;;;;;5075698;28;20052;-74
2022/09/04 00:34:49;;;;;;;0.10;0.10;;;13.00;99.90;;;;;;5075465;28;20101;-75
2022/09/04 00:37:21;;;;;;;0.20;0.20;;;13.00;99.90;;;;;;5075267;28;20352;-74
2022/09/04 00:40:05;;;;;;;0.95;0.65;;;13.10;99.90;;;;;;5073628;28;20028;-73
2022/09/04 00:42:44;;;;;;;0.13;0.13;;;12.90;99.90;;;;;;5076011;28;20098;-74
2022/09/04 00:45:43;;;;;;;0.20;0.20;;;13.40;99.90;;;;;;5075248;28;20063;-73
2022/09/04 00:48:33;;;;;;;0.00;0.00;;;13.00;99.90;;;;;;5075780;28;20084;-73
2022/09/04 00:51:14;;;;;;;0.17;0.10;;;13.10;99.90;;;;;;5074780;28;20045;-73
2022/09/04 00:53:59;;;;;;;0.22;0.20;;;13.10;99.90;;;;;;5075201;28;20067;-73
2022/09/04 00:57:02;;;;;;;0.10;0.10;;;13.00;99.90;;;;;;5073738;28;20101;-74
2022/09/04 00:59:59;;;;;;;0.35;0.32;;;13.10;99.90;;;;;;5063095;28;20040;-74
2022/09/04 01:02:36;;;;;;;0.10;0.10;;;13.00;99.90;;;;;;5073092;28;20045;-74
2022/09/04 01:05:25;;;;;;;0.98;0.38;;;13.00;99.90;;;;;;5073892;28;20049;-73
2022/09/04 01:08:06;;;;;;;10.60;2.05;;;12.90;99.90;;;;;;5074109;28;20041;-74
2022/09/04 01:10:44;;;;;;;6.93;0.85;;;12.80;99.90;;;;;;5073136;28;20060;-73
2022/09/04 01:13:22;;;;;;;0.20;0.20;;;12.90;99.90;;;;;;5073002;28;20041;-73
2022/09/04 01:15:56;;;;;;;1.65;0.95;;;12.90;99.90;;;;;;5074529;28;20032;-74
2022/09/04 01:18:31;;;;;;;0.40;0.15;;;12.80;99.90;;;;;;5073728;28;20100;-74
2022/09/04 01:21:29;;;;;;;0.32;0.32;;;12.80;99.90;;;;;;5074662;28;20047;-74
2022/09/04 01:24:17;;;;;;;0.10;0.10;;;12.70;99.90;;;;;;5074840;28;20036;-74
2022/09/04 01:26:46;;;;;;;0.52;0.38;;;12.50;99.90;;;;;;5074848;28;20025;-74
2022/09/04 01:29:22;;;;;;;0.57;0.45;;;12.50;99.90;;;;;;5074420;28;20052;-73
2022/09/04 01:32:04;;;;;;;0.17;0.17;;;12.40;99.90;;;;;;5075020;28;20052;-74
2022/09/04 01:34:52;;;;;;;0.52;0.40;;;12.30;99.90;;;;;;5075010;28;20092;-74
2022/09/04 01:37:29;;;;;;;0.08;0.08;;;12.30;99.90;;;;;;5075680;28;20041;-73
2022/09/04 01:40:11;;;;;;;0.40;0.38;;;12.10;99.90;;;;;;5074500;28;20071;-74
2022/09/04 01:42:50;;;;;;;0.43;0.35;;;12.10;99.90;;;;;;5072684;28;20104;-75
2022/09/04 01:45:55;;;;;;;0.38;0.38;;;12.20;99.90;;;;;;5073237;28;20056;-73
2022/09/04 01:48:39;;;;;;;2.88;0.57;;;12.10;99.90;;;;;;5075269;28;20385;-74
2022/09/04 01:51:24;;;;;;;3.03;0.93;;;12.00;99.90;;;;;;5075702;28;20045;-74
2022/09/04 01:54:05;;;;;;;5.68;0.65;;;11.90;99.90;;;;;;5075461;28;20033;-73
2022/09/04 01:56:41;;;;;;;0.10;0.10;;;11.90;99.90;;;;;;5075119;28;20045;-72
2022/09/04 01:59:36;;;;;;;0.57;0.10;;;12.00;99.90;;;;;;5075245;28;20056;-72
2022/09/04 02:02:24;;;;;;;2.30;0.93;;;11.90;99.90;;;;;;5074942;28;20044;-74
2022/09/04 02:05:03;;;;;;;0.10;0.10;;;11.70;99.90;;;;;;5075561;28;20037;-74
2022/09/04 02:07:37;;;;;;;0.05;0.05;;;11.60;99.90;;;;;;5075467;28;20060;-73
2022/09/04 02:10:24;;;;;;;0.00;0.00;;;11.60;99.90;;;;;;5074821;28;20057;-72
2022/09/04 02:13:06;;;;;;;0.00;0.00;;;11.50;99.90;;;;;;5075431;28;20021;-73
2022/09/04 02:15:57;;;;;;;0.10;0.10;;;11.50;99.90;;;;;;5074841;28;20037;-73
2022/09/04 02:18:32;;;;;;;0.43;0.30;;;11.40;99.90;;;;;;5075244;28;20045;-74
2022/09/04 02:21:22;;;;;;;0.10;0.10;;;11.40;99.90;;;;;;5075014;28;20043;-73
2022/09/04 02:24:01;;;;;;;1.00;0.73;;;11.30;99.90;;;;;;5063573;28;20045;-73
2022/09/04 02:26:32;;;;;;;0.70;0.30;;;11.30;99.90;;;;;;5074880;28;20025;-75
2022/09/04 02:29:18;;;;;;;0.00;0.00;;;11.20;99.90;;;;;;5074927;28;20043;-74
2022/09/04 02:32:19;;;;;;;0.00;0.00;;;11.30;99.90;;;;;;5073939;28;20036;-73
2022/09/04 02:34:52;;;;;;;0.13;0.10;;;11.50;99.90;;;;;;5057532;28;20044;-75
2022/09/04 02:37:37;;;;;;;0.00;0.00;;;11.60;99.90;;;;;;5074514;28;20105;-73
2022/09/04 02:40:19;;;;;;;0.17;0.15;;;11.50;99.90;;;;;;5075036;28;20029;-73
2022/09/04 02:42:59;;;;;;;0.20;0.20;;;11.50;99.90;;;;;;5074314;28;20041;-73
2022/09/04 02:45:46;;;;;;;0.13;0.13;;;11.60;99.90;;;;;;5072748;28;20053;-75
2022/09/04 02:48:12;;;;;;;;;;;11.60;99.90;;;;;;5073333;28;20085;-74
2022/09/04 02:50:50;;;;;;;0.05;0.05;;;11.80;99.90;;;;;;5072316;28;19921;-73
2022/09/04 02:53:41;;;;;;;0.00;0.00;;;11.70;99.90;;;;;;5072820;28;20049;-74
2022/09/04 02:56:33;;;;;;;0.00;0.00;;;11.80;99.90;;;;;;5071860;28;20070;-73
2022/09/04 02:59:46;;;;;;;1.80;1.08;;;11.80;99.90;;;;;;5070592;28;20090;-74
2022/09/04 03:02:59;;;;;;;0.00;0.00;;;11.90;99.90;;;;;;5056095;28;20048;-74
2022/09/04 03:05:30;;;;;;;0.10;0.10;;;11.90;99.90;;;;;;5053121;28;20045;-74
2022/09/04 03:08:17;;;;;;;0.00;0.00;;;11.80;99.90;;;;;;5071173;28;20055;-73
2022/09/04 03:10:51;;;;;;;0.10;0.08;;;11.80;99.90;;;;;;5071169;28;20045;-73
2022/09/04 03:13:30;;;;;;;0.43;0.30;;;12.20;99.90;;;;;;5070350;28;20041;-73
2022/09/04 03:16:19;;;;;;;0.47;0.47;;;11.90;99.90;;;;;;5071772;28;20072;-74
2022/09/04 03:18:54;;;;;;;0.60;0.15;;;11.80;99.90;;;;;;5071446;28;20048;-73
2022/09/04 03:21:30;;;;;;;1.67;0.57;;;11.80;99.90;;;;;;5072022;28;20595;-72
2022/09/04 03:24:06;;;;;;;0.70;0.70;;;11.80;99.90;;;;;;5071497;28;20590;-73
2022/09/04 03:27:06;;;;;;;3.93;0.97;;;11.70;99.90;;;;;;5072364;28;20049;-74
2022/09/04 03:30:08;;;;;;;0.10;0.10;;;11.70;99.90;;;;;;5072718;28;20047;-73
2022/09/04 03:32:38;;;;;;;1.40;0.57;;;11.60;99.90;;;;;;5070337;28;20044;-73
2022/09/04 03:35:11;;;;;;;2.17;0.45;;;11.60;99.90;;;;;;5070643;28;20041;-74
2022/09/04 03:37:52;;;;;;;0.03;0.03;;;11.70;99.90;;;;;;5072141;28;20075;-74
2022/09/04 03:40:40;;;;;;;0.43;0.38;;;11.70;99.90;;;;;;5071439;28;20055;-73
2022/09/04 03:43:24;;;;;;;1.20;0.70;;;11.60;99.90;;;;;;5072981;28;20048;-73
2022/09/04 03:46:25;;;;;;;0.00;0.00;;;11.50;99.90;;;;;;5072173;28;20071;-75
2022/09/04 03:49:07;;;;;;;0.25;0.25;;;11.40;99.90;;;;;;5072657;28;20063;-73
2022/09/04 03:51:49;;;;;;;0.00;0.00;;;11.40;99.90;;;;;;5073206;28;20052;-73
2022/09/04 03:54:22;;;;;;;0.20;0.20;;;11.30;99.90;;;;;;5073068;28;20045;-74
2022/09/04 03:57:01;;;;;;;0.20;0.15;;;11.20;99.90;;;;;;5072740;28;20071;-73
2022/09/04 04:00:18;;;;;;;0.50;0.50;;;11.10;99.90;;;;;;5071883;28;20061;-75
2022/09/04 04:03:00;;;;;;;0.28;0.25;;;11.00;99.90;;;;;;5073893;28;20049;-73
2022/09/04 04:06:10;;;;;;;0.25;0.25;;;10.90;99.90;;;;;;5072152;28;20037;-73
2022/09/04 04:08:41;;;;;;;0.20;0.15;;;10.90;99.90;;;;;;5075098;28;20095;-74
2022/09/04 04:11:26;;;;;;;0.40;0.40;;;10.80;99.90;;;;;;5075094;28;20045;-73
2022/09/04 04:14:09;;;;;;;0.00;0.00;;;10.70;99.90;;;;;;5075973;28;20031;-73
2022/09/04 04:16:58;;;;;;;0.00;0.00;;;10.70;99.90;;;;;;5075949;28;20052;-75
2022/09/04 04:19:42;;;;;;;0.90;0.40;;;10.70;99.90;;;;;;5076509;28;20053;-73
2022/09/04 04:22:40;;;;;;;0.17;0.10;;;10.60;99.90;;;;;;5077571;28;20066;-74
2022/09/04 04:25:34;;;;;;;0.20;0.20;;;10.60;99.90;;;;;;5076552;28;20048;-74
2022/09/04 04:28:18;;;;;;;0.43;0.25;;;10.60;99.90;;;;;;5077346;28;20040;-74
2022/09/04 04:30:51;;;;;;;0.00;0.00;;;10.60;99.90;;;;;;5077537;28;20040;-73
2022/09/04 04:33:44;;;;;;;0.57;0.57;;;10.50;99.90;;;;;;5077641;28;20040;-75
2022/09/04 04:36:28;;;;;;;0.00;0.00;;;10.50;99.90;;;;;;5077637;28;20039;-74
2022/09/04 04:39:16;;;;;;;21.98;0.57;;;10.40;99.90;;;;;;5077305;28;20045;-74
2022/09/04 04:42:03;;;;;;;0.15;0.00;;;10.40;99.90;;;;;;5077280;28;20048;-73
2022/09/04 04:47:35;;;;;;;0.28;0.28;;;10.20;99.90;;;;;;5076967;28;20048;-74
2022/09/04 04:50:16;;;;;;;0.10;0.10;;;10.20;99.90;;;;;;5076133;28;20072;-73
2022/09/04 04:53:08;;;;;;;0.10;0.08;;;10.10;99.90;;;;;;5076912;28;20041;-74
2022/09/04 04:55:55;;;;;;;0.75;0.63;;;10.00;99.90;;;;;;5046143;28;20033;-73
2022/09/04 04:58:42;;;;;;;0.28;0.28;;;10.00;99.90;;;;;;5077755;28;20037;-73
2022/09/04 05:01:16;;;;;;;0.28;0.22;;;9.90;99.90;;;;;;5076938;28;20028;-74
2022/09/04 05:03:53;;;;;;;0.00;0.00;;;10.00;99.90;;;;;;5075643;28;20032;-74
2022/09/04 05:06:40;;;;;;;0.10;0.10;;;9.90;99.90;;;;;;5076109;28;20045;-75
2022/09/04 05:09:14;;;;;;;0.10;0.10;;;9.90;99.90;;;;;;5075528;28;20061;-75
2022/09/04 05:12:17;;;;;;;0.00;0.00;;;10.00;99.90;;;;;;5077138;28;20057;-75
2022/09/04 05:15:07;;;;;;;0.63;0.63;;;10.10;99.90;;;;;;5005888;28;20055;-73
2022/09/04 05:17:59;;;;;;;0.20;0.20;;;10.10;99.90;;;;;;5076474;28;20083;-74
2022/09/04 05:20:49;;;;;;;0.20;0.20;;;10.10;99.90;;;;;;5075266;28;20083;-73
2022/09/04 05:23:31;;;;;;;0.00;0.00;;;10.10;99.90;;;;;;5073057;28;20040;-74
2022/09/04 05:26:15;;;;;;;0.22;0.15;;;10.20;99.90;;;;;;5075605;28;20052;-73
2022/09/04 05:29:03;;;;;;;0.30;0.20;;;10.30;99.90;;;;;;5076177;28;20024;-75
2022/09/04 05:31:44;;;;;;;0.63;0.20;;;10.30;99.90;;;;;;5076061;28;20171;-74
2022/09/04 05:34:32;;;;;;;0.03;0.03;;;10.30;99.90;;;;;;5075564;28;20100;-74
2022/09/04 05:37:15;;;;;;;0.03;0.03;;;10.40;99.90;;;;;;5076554;28;20064;-74
2022/09/04 05:40:05;;;;;;;0.00;0.00;;;10.60;99.90;;;;;;5075748;28;20041;-74
2022/09/04 05:42:47;;;;;;;0.40;0.40;;;10.70;99.90;;;;;;5075907;28;20045;-73
2022/09/04 05:45:48;;;;;;;0.32;0.30;;;10.90;99.90;;;;;;5074844;28;20049;-74
2022/09/04 05:48:51;;;;;;;0.45;0.45;;;11.10;99.90;;;;;;5074440;28;20041;-73
2022/09/04 05:51:41;;;;;;;0.25;0.25;;;11.40;99.90;;;;;;5075397;28;20060;-75
2022/09/04 05:54:33;;;;;;;1.33;1.13;;;11.70;99.90;;;;;;5075079;28;20049;-73
2022/09/04 05:57:24;;;;;;;0.00;0.00;;;12.10;99.90;;;;;;5072003;28;20101;-73
2022/09/04 06:00:13;;;;;;;0.30;0.30;;;12.40;99.90;;;;;;5068673;28;20044;-73
2022/09/04 06:03:03;;;;;;;0.90;0.57;;;12.70;99.90;;;;;;5068581;28;20021;-73
2022/09/04 06:05:54;;;;;;;0.05;0.05;;;12.80;99.90;;;;;;5051705;28;20045;-73
2022/09/04 06:08:30;;;;;;;0.03;0.03;;;12.90;99.90;;;;;;5068245;28;20029;-73
2022/09/04 06:11:25;;;;;;;0.10;0.10;;;13.00;99.90;;;;;;5071082;28;20049;-74
2022/09/04 06:13:57;;;;;;;1.23;0.75;;;13.10;99.90;;;;;;5071246;28;20127;-73
2022/09/04 06:17:10;;;;;;;0.00;0.00;;;13.60;99.90;;;;;;5071342;28;20033;-73
2022/09/04 06:20:01;;;;;;;0.32;0.20;;;14.20;99.90;;;;;;5068776;28;20044;-73
2022/09/04 06:22:36;;;;;;;0.00;0.00;;;14.80;99.90;;;;;;5068635;28;20049;-73
2022/09/04 06:25:18;;;;;;;0.15;0.15;;;15.20;99.90;;;;;;5070700;28;20037;-73
2022/09/04 06:27:58;;;;;;;0.47;0.47;;;15.20;99.90;;;;;;5071512;28;20045;-73
2022/09/04 06:30:40;;;;;;;0.22;0.17;;;15.60;99.90;;;;;;5073403;28;20041;-75
2022/09/04 06:33:23;;;;;;;0.15;0.15;;;16.40;99.90;;;;;;5074104;28;20040;-75
2022/09/04 06:36:10;;;;;;;0.00;0.00;;;16.90;99.90;;;;;;5074376;28;20039;-76
2022/09/04 06:39:03;;;;;;;0.30;0.30;;;17.20;99.90;;;;;;5074301;28;20045;-74
2022/09/04 06:41:38;;;;;;;0.75;0.75;;;17.20;99.90;;;;;;5071305;28;20078;-74
2022/09/04 06:44:38;;;;;;;0.00;0.00;;;17.00;99.60;;;;;;5072039;28;20056;-73
2022/09/04 06:47:09;;;;;;;0.38;0.30;;;16.70;99.90;;;;;;5051462;28;20036;-74
2022/09/04 06:50:03;;;;;;;0.20;0.20;;;16.10;99.90;;;;;;5067858;28;20071;-74
2022/09/04 06:53:02;;;;;;;0.32;0.32;;;16.30;99.90;;;;;;5072046;28;20033;-74
2022/09/04 06:55:44;;;;;;;0.30;0.30;;;16.70;99.90;;;;;;5037811;28;20056;-74
2022/09/04 06:58:41;;;;;;;0.03;0.03;;;17.40;99.30;;;;;;5068476;28;20049;-74
2022/09/04 07:01:29;;;;;;;0.30;0.20;;;17.50;95.00;;;;;;5068225;28;20045;-74
2022/09/04 07:04:13;;;;;;;0.73;0.50;;;17.70;94.40;;;;;;5071683;28;20051;-75
2022/09/04 07:06:58;;;;;;;0.40;0.32;;;18.30;85.10;;;;;;5065542;28;20049;-74
2022/09/04 07:09:50;;;;;;;0.45;0.43;;;18.10;84.80;;;;;;5067321;28;20053;-73
2022/09/04 07:12:46;;;;;;;2.60;0.88;;;18.00;85.80;;;;;;5066024;28;20052;-74
2022/09/04 07:15:26;;;;;;;0.10;0.10;;;18.20;82.90;;;;;;5067158;28;20052;-75
2022/09/04 07:18:09;;;;;;;0.57;0.30;;;18.60;83.40;;;;;;5062842;28;20203;-74
2022/09/04 07:20:46;;;;;;;1.15;0.40;;;18.20;77.30;;;;;;5069620;28;20376;-74
2022/09/04 07:23:43;;;;;;;1.17;0.75;;;18.50;84.30;;;;;;5069129;28;20052;-74
2022/09/04 07:26:31;;;;;;;0.45;0.28;;;18.30;85.00;;;;;;5064087;28;20645;-75
2022/09/04 07:29:05;;;;;;;0.20;0.20;;;17.50;90.40;;;;;;5061749;28;20208;-73
2022/09/04 07:32:00;;;;;;;0.00;0.00;;;17.20;94.80;;;;;;5061370;28;20523;-74
2022/09/04 07:34:39;;;;;;;0.60;0.40;;;17.00;98.60;;;;;;5036820;28;20103;-74
2022/09/04 07:37:26;;;;;;;0.08;0.03;;;17.00;99.60;;;;;;5061075;28;20045;-74
2022/09/04 07:40:10;;;;;;;0.00;0.00;;;16.80;99.90;;;;;;5044746;28;20488;-73
2022/09/04 07:42:47;;;;;;;1.48;1.13;;;16.90;99.90;;;;;;5071189;28;20068;-74
2022/09/04 07:45:54;;;;;;;0.75;0.30;;;17.20;99.90;;;;;;5067843;28;20107;-73
2022/09/04 07:48:35;;;;;;;0.65;0.40;;;17.20;99.90;;;;;;5064700;28;20460;-73
2022/09/04 07:51:15;;;;;;;0.38;0.32;;;17.40;98.90;;;;;;5067320;28;20045;-73
2022/09/04 07:54:03;;;;;;;0.00;0.00;;;17.80;96.30;;;;;;5069814;28;20045;-74
2022/09/04 07:56:41;;;;;;;0.32;0.30;;;18.60;91.30;;;;;;5063217;28;20041;-73
2022/09/04 07:59:22;;;;;;;0.00;0.00;;;19.00;82.80;;;;;;5069659;28;20056;-75
2022/09/04 08:02:04;;;;;;;0.38;0.20;;;19.40;74.30;;;;;;5065290;28;20044;-76
2022/09/04 08:04:45;;;;;;;0.30;0.30;;;19.60;69.80;;;;;;5066730;28;20114;-73
2022/09/04 08:07:19;;;;;;;0.22;0.20;;;19.80;65.50;;;;;;5069254;28;20111;-74
2022/09/04 08:10:05;;;;;;;2.70;1.13;;;20.20;55.20;;;;;;5066568;28;20072;-73
2022/09/04 08:12:39;;;;;;;0.60;0.30;;;20.20;53.00;;;;;;5050684;28;20049;-74
2022/09/04 08:15:22;;;;;;;0.57;0.47;;;20.60;48.20;;;;;;5053823;28;20053;-75
2022/09/04 08:18:18;;;;;;;0.45;0.45;;;21.10;39.50;;;;;;5066932;28;20116;-74
2022/09/04 08:21:10;;;;;;;1.55;0.93;;;21.20;31.30;;;;;;5050769;28;20059;-74
2022/09/04 08:23:51;;;;;;;0.85;0.60;;;21.70;29.20;;;;;;5066926;28;20045;-74
2022/09/04 08:26:24;;;;;;;0.28;0.25;;;21.80;23.80;;;;;;5066568;28;20083;-74
2022/09/04 08:29:12;;;;;;;0.60;0.13;;;21.70;23.70;;;;;;5064649;28;20045;-74
2022/09/04 08:31:49;;;;;;;1.33;0.98;;;21.40;26.80;;;;;;5065191;28;20126;-75
2022/09/04 08:34:41;;;;;;;0.10;0.10;;;21.30;27.60;;;;;;5071104;28;20045;-75
2022/09/04 08:37:24;;;;;;;0.20;0.20;;;22.20;23.40;;;;;;5069793;28;20470;-74
2022/09/04 08:40:29;;;;;;;0.60;0.47;;;22.60;18.20;;;;;;5070500;28;20093;-74
2022/09/04 08:43:15;;;;;;;0.00;0.00;;;23.30;15.40;;;;;;5063714;28;20045;-74
2022/09/04 08:46:03;;;;;;;0.00;0.00;;;23.30;11.10;;;;;;5066681;28;20068;-75
2022/09/04 08:48:50;;;;;;;0.17;0.17;;;23.10;12.40;;;;;;5064794;28;20120;-74
2022/09/04 08:51:21;;;;;;;0.00;0.00;;;23.00;12.30;;;;;;5068299;28;20048;-75
2022/09/04 08:54:33;;;;;;;0.22;0.20;;;23.40;10.30;;;;;;5063131;28;20056;-75
2022/09/04 08:57:47;;;;;;;0.43;0.40;;;23.70;9.90;;;;;;5066251;28;20041;-74
2022/09/04 09:00:21;;;;;;;5.78;1.10;;;23.90;6.80;;;;;;5051229;28;20052;-74
2022/09/04 09:02:58;;;;;;;0.00;0.00;;;24.20;6.50;;;;;;5068189;28;20127;-75
2022/09/04 09:05:54;;;;;;;0.15;0.15;;;24.50;4.30;;;;;;5066326;28;20045;-75
2022/09/04 09:08:31;;;;;;;4.18;0.52;;;23.90;3.20;;;;;;5066219;28;20067;-73
2022/09/04 09:11:18;;;;;;;0.20;0.20;;;24.00;3.40;;;;;;5074594;28;20053;-75
2022/09/04 09:14:21;;;;;;;0.00;0.00;;;25.10;3.60;;;;;;5066736;28;20049;-74
2022/09/04 09:17:11;;;;;;;0.35;0.25;;;24.70;1.00;;;;;;5073116;28;20117;-74
2022/09/04 09:19:46;;;;;;;0.50;0.35;;;25.40;1.00;;;;;;5064132;28;20045;-74
2022/09/04 09:22:39;;;;;;;0.63;0.40;;;24.90;1.00;;;;;;5066871;28;20041;-75
2022/09/04 09:25:19;;;;;;;0.22;0.22;;;24.50;1.00;;;;;;5062671;28;20049;-74
2022/09/04 09:28:04;;;;;;;0.32;0.32;;;24.00;1.70;;;;;;5063592;28;20087;-74
2022/09/04 09:30:59;;;;;;;0.22;0.20;;;23.80;2.20;;;;;;5067825;28;20102;-74
2022/09/04 09:33:39;;;;;;;0.30;0.20;;;24.10;4.10;;;;;;5064284;28;20059;-76
2022/09/04 09:36:23;;;;;;;0.32;0.25;;;24.00;2.10;;;;;;5068892;28;20041;-74
2022/09/04 09:38:52;;;;;;;0.28;0.20;;;24.10;1.30;;;;;;5067072;28;20041;-74
2022/09/04 09:41:23;;;;;;;0.10;0.10;;;24.30;2.10;;;;;;5064733;28;20128;-74
2022/09/04 09:44:38;;;;;;;0.88;0.50;;;24.10;1.00;;;;;;5063096;28;20128;-73
2022/09/04 09:47:08;;;;;;;1.20;0.40;;;23.70;1.40;;;;;;5064828;28;20041;-74
2022/09/04 09:49:58;;;;;;;0.20;0.20;;;23.90;4.10;;;;;;5060720;28;20097;-75
2022/09/04 09:52:34;;;;;;;0.00;0.00;;;23.80;1.00;;;;;;5063145;28;20049;-74
2022/09/04 09:55:18;;;;;;;0.93;0.38;;;23.90;1.40;;;;;;5066200;28;20044;-74
2022/09/04 09:58:03;;;;;;;1.13;0.32;;;24.40;1.00;;;;;;5061858;28;20074;-74
2022/09/04 10:00:58;;;;;;;0.70;0.32;;;24.30;1.00;;;;;;5062012;28;20045;-75
2022/09/04 10:04:05;;;;;;;2.58;0.47;;;23.90;1.00;;;;;;5029093;28;20073;-73
2022/09/04 10:06:40;;;;;;;;;;;24.20;1.00;;;;;;5066789;28;20049;-74
2022/09/04 10:09:26;;;;;;;0.52;0.30;;;24.30;1.00;;;;;;5065895;28;19921;-75
2022/09/04 10:12:22;;;;;;;0.00;0.00;;;24.60;1.00;;;;;;5062816;28;20103;-74
2022/09/04 10:15:11;;;;;;;0.30;0.28;;;24.80;1.00;;;;;;5061799;28;20097;-74
2022/09/04 10:17:49;;;;;;;0.00;0.00;;;24.80;1.00;;;;;;5062685;28;20048;-74
2022/09/04 10:20:39;;;;;;;0.10;0.10;;;25.00;1.00;;;;;;5061798;28;20045;-74
2022/09/04 10:23:05;;;;;;;0.43;0.35;;;24.80;1.00;;;;;;5057883;28;20048;-73
2022/09/04 10:25:36;;;;;;;0.75;0.57;;;24.50;1.00;;;;;;5059964;28;20512;-74
2022/09/04 10:28:21;;;;;;;0.10;0.10;;;24.20;1.00;;;;;;5061974;28;20045;-74
2022/09/04 10:30:52;;;;;;;0.38;0.22;;;24.80;1.00;;;;;;5061998;28;20082;-74
2022/09/04 10:33:37;;;;;;;0.00;0.00;;;25.00;1.00;;;;;;5061327;28;20055;-74
2022/09/04 10:36:26;;;;;;;0.15;0.15;;;24.90;1.00;;;;;;5059119;28;20114;-74
2022/09/04 10:42:34;;;;;;;0.13;0.10;;;24.70;1.00;;;;;;5065809;28;20045;-74
2022/09/04 10:45:25;;;;;;;0.65;0.45;;;25.40;1.00;;;;;;5060050;28;20135;-74
2022/09/04 10:48:03;;;;;;;0.13;0.13;;;25.20;1.00;;;;;;5062638;28;20051;-72
2022/09/04 10:50:55;;;;;;;0.22;0.22;;;25.50;1.00;;;;;;5064489;28;20100;-75
2022/09/04 10:53:29;;;;;;;0.10;0.03;;;25.80;1.00;;;;;;5063159;28;20076;-74
2022/09/04 10:56:20;;;;;;;0.38;0.30;;;26.40;1.00;;;;;;5061068;28;20052;-75
2022/09/04 10:58:59;;;;;;;0.00;0.00;;;26.30;1.00;;;;;;5062206;28;20049;-74
2022/09/04 11:01:46;;;;;;;0.05;0.05;;;26.50;1.00;;;;;;5056268;28;20131;-74
2022/09/04 11:04:52;;;;;;;0.17;0.00;;;25.90;1.00;;;;;;5056564;28;20526;-74
2022/09/04 11:07:42;;;;;;;1.65;0.80;;;25.70;1.00;;;;;;5060204;28;20049;-74
2022/09/04 11:10:21;;;;;;;4.15;0.55;;;25.70;1.00;;;;;;5062638;28;20134;-74
2022/09/04 11:13:21;;;;;;;0.00;0.00;;;25.80;1.00;;;;;;5063793;28;20045;-74
2022/09/04 11:16:10;;;;;;;0.00;0.00;;;26.20;1.00;;;;;;5060911;28;20071;-75
2022/09/04 11:18:58;;;;;;;0.25;0.20;;;26.30;1.00;;;;;;5062396;28;20101;-74
2022/09/04 11:21:52;;;;;;;0.10;0.10;;;26.70;1.00;;;;;;5060864;28;20488;-74
2022/09/04 11:25:03;;;;;;;0.10;0.10;;;26.80;1.00;;;;;;5065532;28;20045;-75
2022/09/04 11:27:58;;;;;;;0.20;0.20;;;27.30;1.00;;;;;;5062501;28;20052;-75
2022/09/04 11:30:31;;;;;;;0.00;0.00;;;27.60;1.00;;;;;;5060826;28;20052;-74
2022/09/04 11:33:24;;;;;;;0.20;0.20;;;27.60;1.00;;;;;;5058619;28;20315;-74
2022/09/04 11:36:28;;;;;;;1.45;1.17;;;27.40;1.00;;;;;;5060041;28;20048;-75
2022/09/04 11:39:24;;;;;;;1.38;0.65;;;28.00;1.00;;;;;;5063124;28;20511;-75
2022/09/04 11:42:23;;;;;;;0.03;0.03;;;29.20;1.00;;;;;;5059248;28;20059;-75
2022/09/04 11:45:27;;;;;;;0.20;0.20;;;29.70;1.00;;;;;;5064627;28;20037;-74
2022/09/04 11:48:08;;;;;;;0.05;0.03;;;30.20;1.00;;;;;;5062400;28;20452;-75
2022/09/04 11:51:01;;;;;;;0.08;0.03;;;30.90;1.00;;;;;;5061592;28;20037;-74
2022/09/04 11:53:39;;;;;;;0.63;0.50;;;31.40;1.00;;;;;;5062922;28;20101;-74
2022/09/04 11:56:30;;;;;;;0.40;0.17;;;30.10;1.00;;;;;;5060475;28;20045;-74
2022/09/04 11:59:05;;;;;;;0.00;0.00;;;29.00;1.00;;;;;;5061951;28;20064;-74
2022/09/04 12:01:30;;;;;;;0.20;0.10;;;29.30;1.00;;;;;;5040703;28;20041;-74
2022/09/04 12:04:21;;;;;;;0.00;0.00;;;29.40;1.00;;;;;;5056918;28;20044;-74
2022/09/04 12:07:07;;;;;;;0.10;0.10;;;28.80;1.00;;;;;;5058355;28;20178;-76
2022/09/04 12:09:58;;;;;;;0.98;0.43;;;29.60;1.00;;;;;;5059835;28;20061;-74
2022/09/04 12:12:41;;;;;;;0.10;0.10;;;29.20;1.00;;;;;;5059045;28;20056;-75
2022/09/04 12:15:26;;;;;;;0.47;0.30;;;29.10;1.00;;;;;;5058259;28;20123;-74
2022/09/04 12:18:16;;;;;;;0.00;0.00;;;29.40;1.00;;;;;;5058832;28;20124;-73
2022/09/04 12:21:14;;;;;;;1.42;0.28;;;29.70;1.00;;;;;;5058351;28;20045;-73
2022/09/04 12:24:16;;;;;;;0.00;0.00;;;29.00;1.00;;;;;;5057559;28;20059;-74
2022/09/04 12:26:48;;;;;;;0.10;0.10;;;29.00;1.00;;;;;;5054467;28;20045;-75
2022/09/04 12:29:46;;;;;;;1.17;0.35;;;29.10;1.00;;;;;;5056479;28;20514;-74
2022/09/04 12:32:25;;;;;;;0.20;0.17;;;28.90;1.00;;;;;;5063599;28;20045;-74
2022/09/04 12:35:09;;;;;;;0.65;0.43;;;29.40;1.00;;;;;;5059981;28;20045;-74
2022/09/04 12:37:55;;;;;;;0.00;0.00;;;29.20;1.00;;;;;;5060098;28;20060;-75
2022/09/04 12:40:49;;;;;;;0.10;0.10;;;28.90;1.00;;;;;;5062053;28;20529;-75
2022/09/04 12:43:52;;;;;;;0.40;0.32;;;29.40;1.00;;;;;;5063316;28;20041;-74
2022/09/04 12:46:28;;;;;;;0.15;0.15;;;30.30;1.00;;;;;;5064359;28;20178;-74
2022/09/04 12:49:12;;;;;;;0.05;0.05;;;31.00;1.00;;;;;;5059232;28;20072;-74
2022/09/04 12:52:09;;;;;;;1.65;0.32;;;29.90;1.00;;;;;;5057314;28;20049;-74
2022/09/04 12:55:00;;;;;;;0.45;0.30;;;29.70;1.00;;;;;;5061202;28;20041;-74
2022/09/04 12:58:05;;;;;;;0.65;0.30;;;30.40;1.00;;;;;;5056961;28;20060;-74
2022/09/04 13:00:39;;;;;;;0.22;0.17;;;29.50;1.00;;;;;;5056477;28;20049;-74
2022/09/04 13:03:10;;;;;;;2.35;0.52;;;29.40;1.00;;;;;;5055252;28;20084;-74
2022/09/04 13:05:52;;;;;;;0.00;0.00;;;30.10;1.00;;;;;;5056540;28;20037;-74
2022/09/04 13:08:33;;;;;;;1.08;0.52;;;30.60;1.00;;;;;;5055423;28;20049;-74
2022/09/04 13:11:21;;;;;;;4.65;0.43;;;31.70;1.00;;;;;;5055903;28;20512;-74
2022/09/04 13:13:55;;;;;;;4.80;0.38;;;30.90;1.00;;;;;;5055517;28;20496;-74
2022/09/04 13:16:30;;;;;;;0.00;0.00;;;29.80;1.00;;;;;;5057532;28;20175;-73
2022/09/04 13:19:19;;;;;;;1.10;0.50;;;29.90;1.00;;;;;;5055112;28;20057;-74
2022/09/04 13:22:06;;;;;;;0.00;0.00;;;30.00;1.00;;;;;;5055995;28;20492;-74
2022/09/04 13:24:58;;;;;;;0.10;0.10;;;31.20;1.00;;;;;;5056631;28;20045;-75
2022/09/04 13:28:06;;;;;;;0.32;0.17;;;30.40;1.00;;;;;;5056217;28;20056;-74
2022/09/04 13:30:39;;;;;;;0.10;0.10;;;30.00;1.00;;;;;;5057777;28;20171;-74
2022/09/04 13:33:08;;;;;;;0.20;0.20;;;30.60;1.00;;;;;;5055674;28;20049;-74
2022/09/04 13:35:54;;;;;;;0.00;0.00;;;31.50;1.00;;;;;;5054681;28;20056;-75
2022/09/04 13:38:54;;;;;;;0.22;0.20;;;29.90;1.00;;;;;;5055042;28;20393;-75
2022/09/04 13:42:06;;;;;;;0.00;0.00;;;30.10;1.00;;;;;;5055571;28;20484;-73
2022/09/04 13:44:48;;;;;;;0.52;0.20;;;30.80;1.00;;;;;;5056178;28;20110;-75
2022/09/04 13:47:21;;;;;;;0.15;0.10;;;30.80;1.00;;;;;;5055912;28;20463;-75
2022/09/04 13:49:52;;;;;;;0.05;0.05;;;30.60;1.00;;;;;;5053864;28;20102;-75
2022/09/04 13:52:35;;;;;;;0.20;0.20;;;30.90;1.00;;;;;;5056386;28;20053;-74
2022/09/04 13:55:08;;;;;;;0.15;0.10;;;30.30;1.00;;;;;;5056568;28;20507;-76
2022/09/04 13:58:04;;;;;;;0.10;0.10;;;30.60;1.00;;;;;;5054339;28;20124;-74
2022/09/04 14:00:32;;;;;;;;;;;29.70;1.00;;;;;;5027645;28;20105;-74
2022/09/04 14:03:04;;;;;;;0.13;0.13;;;29.80;1.00;;;;;;5056554;28;19921;-74
2022/09/04 14:05:32;;;;;;;0.00;0.00;;;29.80;1.00;;;;;;5056149;28;20036;-74
2022/09/04 14:08:05;;;;;;;0.38;0.30;;;29.80;1.00;;;;;;5054310;28;20594;-74
2022/09/04 14:10:57;;;;;;;0.40;0.20;;;29.10;1.00;;;;;;5053948;28;20458;-74
2022/09/04 14:13:43;;;;;;;0.00;0.00;;;28.60;1.00;;;;;;5054275;28;20067;-73
2022/09/04 14:16:13;;;;;;;0.03;0.03;;;28.90;1.00;;;;;;5053465;28;20044;-74
2022/09/04 14:19:05;;;;;;;1.95;0.32;;;29.50;1.00;;;;;;5053391;28;20075;-74
2022/09/04 14:21:40;;;;;;;1.55;0.30;;;29.70;1.00;;;;;;5014405;28;20053;-75
2022/09/04 14:24:32;;;;;;;0.17;0.17;;;29.90;1.00;;;;;;5053429;28;20480;-74
2022/09/04 14:27:21;;;;;;;0.50;0.30;;;29.90;1.00;;;;;;5016097;28;20059;-73
2022/09/04 14:30:07;;;;;;;0.10;0.10;;;30.80;1.00;;;;;;5053489;28;20041;-74
2022/09/04 14:33:05;;;;;;;0.10;0.10;;;31.50;1.00;;;;;;5053082;28;20040;-73